sensor_id;sensor_type;location;lat;lon;timestamp;pressure;altitude;pressure_sealevel;temperature;humidity
64933;BME280;51446;53.850;10.662;2022-07-23T00:00:29;101694.41;;;14.67;75.70
64933;BME280;51446;53.850;10.662;2022-07-23T00:02:54;101686.66;;;14.78;75.51
64933;BME280;51446;53.850;10.662;2022-07-23T00:05:20;101686.00;;;14.99;73.80
64933;BME280;51446;53.850;10.662;2022-07-23T00:07:45;101687.00;;;15.07;73.40
64933;BME280;51446;53.850;10.662;2022-07-23T00:10:10;101686.13;;;15.08;73.36
64933;BME280;51446;53.850;10.662;2022-07-23T00:12:36;101680.75;;;15.01;73.14
64933;BME280;51446;53.850;10.662;2022-07-23T00:15:03;101677.25;;;15.02;73.35
64933;BME280;51446;53.850;10.662;2022-07-23T00:17:29;101681.78;;;15.15;73.38
64933;BME280;51446;53.850;10.662;2022-07-23T00:19:54;101685.16;;;15.00;73.33
64933;BME280;51446;53.850;10.662;2022-07-23T00:22:20;101692.88;;;14.86;74.26
64933;BME280;51446;53.850;10.662;2022-07-23T00:24:45;101687.44;;;14.72;74.50
64933;BME280;51446;53.850;10.662;2022-07-23T00:27:10;101686.34;;;14.58;75.73
64933;BME280;51446;53.850;10.662;2022-07-23T00:29:35;101683.88;;;14.70;75.58
64933;BME280;51446;53.850;10.662;2022-07-23T00:32:01;101678.69;;;14.75;75.00
64933;BME280;51446;53.850;10.662;2022-07-23T00:34:26;101670.81;;;14.80;74.88
64933;BME280;51446;53.850;10.662;2022-07-23T00:36:51;101669.22;;;14.93;75.05
64933;BME280;51446;53.850;10.662;2022-07-23T00:39:18;101663.91;;;14.89;74.95
64933;BME280;51446;53.850;10.662;2022-07-23T00:41:44;101661.34;;;14.97;74.29
64933;BME280;51446;53.850;10.662;2022-07-23T00:44:21;101671.03;;;14.97;74.15
64933;BME280;51446;53.850;10.662;2022-07-23T00:46:49;101665.56;;;14.81;74.73
64933;BME280;51446;53.850;10.662;2022-07-23T00:49:14;101661.97;;;14.76;74.85
64933;BME280;51446;53.850;10.662;2022-07-23T00:51:41;101652.22;;;14.73;75.19
64933;BME280;51446;53.850;10.662;2022-07-23T00:54:06;101658.56;;;14.86;74.82
64933;BME280;51446;53.850;10.662;2022-07-23T00:56:32;101648.06;;;14.89;74.11
64933;BME280;51446;53.850;10.662;2022-07-23T00:58:59;101653.22;;;14.80;74.25
64933;BME280;51446;53.850;10.662;2022-07-23T01:01:25;101650.69;;;14.89;74.85
64933;BME280;51446;53.850;10.662;2022-07-23T01:03:50;101649.66;;;14.75;74.92
64933;BME280;51446;53.850;10.662;2022-07-23T01:06:15;101655.81;;;14.76;75.06
64933;BME280;51446;53.850;10.662;2022-07-23T01:08:41;101651.28;;;14.67;75.37
64933;BME280;51446;53.850;10.662;2022-07-23T01:11:07;101646.69;;;14.53;75.94
64933;BME280;51446;53.850;10.662;2022-07-23T01:13:32;101652.78;;;14.48;76.91
64933;BME280;51446;53.850;10.662;2022-07-23T01:15:57;101650.16;;;14.49;76.70
64933;BME280;51446;53.850;10.662;2022-07-23T01:18:22;101646.72;;;14.56;77.63
64933;BME280;51446;53.850;10.662;2022-07-23T01:20:47;101650.25;;;14.57;78.23
64933;BME280;51446;53.850;10.662;2022-07-23T01:23:13;101649.34;;;14.53;78.50
64933;BME280;51446;53.850;10.662;2022-07-23T01:25:47;101648.22;;;14.39;77.70
64933;BME280;51446;53.850;10.662;2022-07-23T01:28:13;101646.53;;;14.43;78.16
64933;BME280;51446;53.850;10.662;2022-07-23T01:30:38;101646.56;;;14.46;77.24
64933;BME280;51446;53.850;10.662;2022-07-23T01:33:03;101653.66;;;14.50;77.02
64933;BME280;51446;53.850;10.662;2022-07-23T01:35:28;101651.00;;;14.47;77.40
64933;BME280;51446;53.850;10.662;2022-07-23T01:37:54;101646.47;;;14.38;77.50
64933;BME280;51446;53.850;10.662;2022-07-23T01:40:19;101644.66;;;14.35;78.43
64933;BME280;51446;53.850;10.662;2022-07-23T01:42:44;101647.09;;;14.21;78.64
64933;BME280;51446;53.850;10.662;2022-07-23T01:45:10;101642.81;;;14.28;79.22
64933;BME280;51446;53.850;10.662;2022-07-23T01:47:35;101645.38;;;14.22;79.26
64933;BME280;51446;53.850;10.662;2022-07-23T01:50:00;101640.09;;;14.22;79.60
64933;BME280;51446;53.850;10.662;2022-07-23T01:52:25;101641.81;;;14.20;79.42
64933;BME280;51446;53.850;10.662;2022-07-23T01:54:51;101634.69;;;14.16;79.48
64933;BME280;51446;53.850;10.662;2022-07-23T01:57:16;101634.69;;;14.14;79.72
64933;BME280;51446;53.850;10.662;2022-07-23T01:59:41;101627.69;;;14.16;79.90
64933;BME280;51446;53.850;10.662;2022-07-23T02:02:07;101621.50;;;14.16;80.36
64933;BME280;51446;53.850;10.662;2022-07-23T02:04:33;101612.78;;;14.20;80.88
64933;BME280;51446;53.850;10.662;2022-07-23T02:07:01;101614.38;;;14.10;80.62
64933;BME280;51446;53.850;10.662;2022-07-23T02:09:27;101615.25;;;14.06;80.71
64933;BME280;51446;53.850;10.662;2022-07-23T02:11:52;101617.75;;;14.00;81.11
64933;BME280;51446;53.850;10.662;2022-07-23T02:14:17;101615.94;;;13.96;81.11
64933;BME280;51446;53.850;10.662;2022-07-23T02:16:42;101607.22;;;14.00;81.45
64933;BME280;51446;53.850;10.662;2022-07-23T02:19:08;101612.53;;;14.03;81.00
64933;BME280;51446;53.850;10.662;2022-07-23T02:21:33;101611.69;;;14.04;80.57
64933;BME280;51446;53.850;10.662;2022-07-23T02:23:58;101617.88;;;14.06;80.53
64933;BME280;51446;53.850;10.662;2022-07-23T02:26:23;101621.31;;;14.02;81.28
64933;BME280;51446;53.850;10.662;2022-07-23T02:28:49;101613.50;;;14.08;81.67
64933;BME280;51446;53.850;10.662;2022-07-23T02:31:14;101612.66;;;14.11;81.38
64933;BME280;51446;53.850;10.662;2022-07-23T02:33:39;101609.16;;;14.12;81.29
64933;BME280;51446;53.850;10.662;2022-07-23T02:36:05;101611.06;;;14.20;81.05
64933;BME280;51446;53.850;10.662;2022-07-23T02:38:30;101606.53;;;14.12;80.99
64933;BME280;51446;53.850;10.662;2022-07-23T02:40:55;101609.88;;;14.01;81.52
64933;BME280;51446;53.850;10.662;2022-07-23T02:43:20;101606.53;;;14.12;81.76
64933;BME280;51446;53.850;10.662;2022-07-23T02:45:46;101606.59;;;14.16;82.34
64933;BME280;51446;53.850;10.662;2022-07-23T02:48:11;101613.63;;;14.17;81.63
64933;BME280;51446;53.850;10.662;2022-07-23T02:50:39;101609.38;;;14.27;81.92
64933;BME280;51446;53.850;10.662;2022-07-23T02:53:04;101611.19;;;14.33;80.87
64933;BME280;51446;53.850;10.662;2022-07-23T02:55:30;101610.28;;;14.29;80.58
64933;BME280;51446;53.850;10.662;2022-07-23T02:57:56;101614.69;;;14.32;80.93
64933;BME280;51446;53.850;10.662;2022-07-23T03:00:21;101612.00;;;14.27;81.09
64933;BME280;51446;53.850;10.662;2022-07-23T03:02:46;101619.81;;;14.19;81.37
64933;BME280;51446;53.850;10.662;2022-07-23T03:05:12;101616.53;;;14.37;82.34
64933;BME280;51446;53.850;10.662;2022-07-23T03:07:37;101608.63;;;14.39;82.33
64933;BME280;51446;53.850;10.662;2022-07-23T03:10:03;101606.94;;;14.41;82.43
64933;BME280;51446;53.850;10.662;2022-07-23T03:12:28;101598.94;;;14.35;82.06
64933;BME280;51446;53.850;10.662;2022-07-23T03:14:53;101602.44;;;14.35;83.16
64933;BME280;51446;53.850;10.662;2022-07-23T03:17:19;101597.19;;;14.37;82.26
64933;BME280;51446;53.850;10.662;2022-07-23T03:19:44;101596.34;;;14.39;81.61
64933;BME280;51446;53.850;10.662;2022-07-23T03:22:09;101590.94;;;14.32;81.41
64933;BME280;51446;53.850;10.662;2022-07-23T03:24:34;101588.41;;;14.38;81.26
64933;BME280;51446;53.850;10.662;2022-07-23T03:27:19;101595.38;;;14.34;81.33
64933;BME280;51446;53.850;10.662;2022-07-23T03:29:44;101591.91;;;14.35;81.52
64933;BME280;51446;53.850;10.662;2022-07-23T03:32:10;101590.84;;;14.22;81.73
64933;BME280;51446;53.850;10.662;2022-07-23T03:34:35;101597.94;;;14.27;81.79
64933;BME280;51446;53.850;10.662;2022-07-23T03:37:01;101588.28;;;14.30;81.14
64933;BME280;51446;53.850;10.662;2022-07-23T03:39:26;101584.72;;;14.25;82.07
64933;BME280;51446;53.850;10.662;2022-07-23T03:41:51;101581.06;;;14.14;82.18
64933;BME280;51446;53.850;10.662;2022-07-23T03:44:17;101581.16;;;14.23;82.15
64933;BME280;51446;53.850;10.662;2022-07-23T03:46:42;101581.09;;;14.17;82.57
64933;BME280;51446;53.850;10.662;2022-07-23T03:49:07;101589.78;;;14.10;83.17
64933;BME280;51446;53.850;10.662;2022-07-23T03:51:32;101593.19;;;14.02;83.80
64933;BME280;51446;53.850;10.662;2022-07-23T03:53:58;101587.03;;;14.02;83.97
64933;BME280;51446;53.850;10.662;2022-07-23T03:56:23;101587.84;;;13.98;84.01
64933;BME280;51446;53.850;10.662;2022-07-23T03:58:48;101591.38;;;14.00;84.44
64933;BME280;51446;53.850;10.662;2022-07-23T04:01:14;101586.94;;;13.96;84.49
64933;BME280;51446;53.850;10.662;2022-07-23T04:03:39;101594.97;;;14.02;84.66
64933;BME280;51446;53.850;10.662;2022-07-23T04:06:05;101587.09;;;14.05;84.28
64933;BME280;51446;53.850;10.662;2022-07-23T04:08:30;101597.56;;;13.99;84.72
64933;BME280;51446;53.850;10.662;2022-07-23T04:10:56;101598.50;;;14.04;84.50
64933;BME280;51446;53.850;10.662;2022-07-23T04:13:21;101598.50;;;14.05;84.63
64933;BME280;51446;53.850;10.662;2022-07-23T04:15:46;101606.53;;;14.12;84.46
64933;BME280;51446;53.850;10.662;2022-07-23T04:18:12;101613.50;;;14.10;84.63
64933;BME280;51446;53.850;10.662;2022-07-23T04:20:37;101612.91;;;14.26;84.23
64933;BME280;51446;53.850;10.662;2022-07-23T04:23:02;101616.34;;;14.22;84.51
64933;BME280;51446;53.850;10.662;2022-07-23T04:25:27;101616.41;;;14.27;83.23
64933;BME280;51446;53.850;10.662;2022-07-23T04:27:53;101612.28;;;14.47;82.07
64933;BME280;51446;53.850;10.662;2022-07-23T04:30:18;101613.06;;;14.40;81.96
64933;BME280;51446;53.850;10.662;2022-07-23T04:32:43;101614.00;;;14.44;82.13
64933;BME280;51446;53.850;10.662;2022-07-23T04:35:09;101616.69;;;14.48;82.31
64933;BME280;51446;53.850;10.662;2022-07-23T04:37:34;101612.53;;;14.63;80.68
64933;BME280;51446;53.850;10.662;2022-07-23T04:39:59;101607.94;;;14.49;81.37
64933;BME280;51446;53.850;10.662;2022-07-23T04:42:24;101607.97;;;14.52;81.24
64933;BME280;51446;53.850;10.662;2022-07-23T04:44:50;101615.06;;;14.58;81.73
64933;BME280;51446;53.850;10.662;2022-07-23T04:47:15;101611.66;;;14.64;81.40
64933;BME280;51446;53.850;10.662;2022-07-23T04:49:40;101612.53;;;14.63;81.04
64933;BME280;51446;53.850;10.662;2022-07-23T04:52:05;101614.31;;;14.64;81.07
64933;BME280;51446;53.850;10.662;2022-07-23T04:54:31;101611.75;;;14.71;80.51
64933;BME280;51446;53.850;10.662;2022-07-23T04:56:56;101625.09;;;14.84;80.15
64933;BME280;51446;53.850;10.662;2022-07-23T04:59:22;101628.53;;;14.75;80.73
64933;BME280;51446;53.850;10.662;2022-07-23T05:01:47;101621.53;;;14.80;80.72
64933;BME280;51446;53.850;10.662;2022-07-23T05:04:12;101629.44;;;14.79;81.04
64933;BME280;51446;53.850;10.662;2022-07-23T05:06:38;101620.00;;;15.01;80.35
64933;BME280;51446;53.850;10.662;2022-07-23T05:09:03;101621.75;;;15.00;79.74
64933;BME280;51446;53.850;10.662;2022-07-23T05:11:28;101619.16;;;15.06;79.80
64933;BME280;51446;53.850;10.662;2022-07-23T05:13:53;101620.06;;;15.05;79.73
64933;BME280;51446;53.850;10.662;2022-07-23T05:16:18;101614.88;;;15.15;79.51
64933;BME280;51446;53.850;10.662;2022-07-23T05:18:44;101613.09;;;15.14;78.93
64933;BME280;51446;53.850;10.662;2022-07-23T05:21:09;101616.53;;;15.06;79.71
64933;BME280;51446;53.850;10.662;2022-07-23T05:23:34;101602.47;;;15.07;79.33
64933;BME280;51446;53.850;10.662;2022-07-23T05:25:59;101604.28;;;15.15;79.52
64933;BME280;51446;53.850;10.662;2022-07-23T05:28:25;101595.41;;;15.08;79.09
64933;BME280;51446;53.850;10.662;2022-07-23T05:30:50;101600.78;;;15.16;79.17
64933;BME280;51446;53.850;10.662;2022-07-23T05:33:18;101612.31;;;15.24;78.22
64933;BME280;51446;53.850;10.662;2022-07-23T05:35:44;101614.03;;;15.19;79.01
64933;BME280;51446;53.850;10.662;2022-07-23T05:38:09;101607.00;;;15.22;78.62
64933;BME280;51446;53.850;10.662;2022-07-23T05:40:35;101608.75;;;15.19;78.77
64933;BME280;51446;53.850;10.662;2022-07-23T05:43:00;101614.88;;;15.16;78.55
64933;BME280;51446;53.850;10.662;2022-07-23T05:45:25;101614.03;;;15.17;79.21
64933;BME280;51446;53.850;10.662;2022-07-23T05:47:50;101619.28;;;15.16;78.86
64933;BME280;51446;53.850;10.662;2022-07-23T05:50:16;101621.81;;;15.06;79.14
64933;BME280;51446;53.850;10.662;2022-07-23T05:52:42;101626.28;;;15.12;79.46
64933;BME280;51446;53.850;10.662;2022-07-23T05:55:08;101632.22;;;14.89;80.31
64933;BME280;51446;53.850;10.662;2022-07-23T05:57:34;101623.50;;;14.98;80.37
64933;BME280;51446;53.850;10.662;2022-07-23T06:00:00;101632.38;;;15.05;79.74
64933;BME280;51446;53.850;10.662;2022-07-23T06:02:26;101629.88;;;15.19;78.41
64933;BME280;51446;53.850;10.662;2022-07-23T06:04:51;101635.03;;;15.06;79.14
64933;BME280;51446;53.850;10.662;2022-07-23T06:07:16;101628.03;;;15.08;79.96
64933;BME280;51446;53.850;10.662;2022-07-23T06:09:42;101625.34;;;15.04;79.98
64933;BME280;51446;53.850;10.662;2022-07-23T06:12:07;101623.50;;;14.98;79.37
64933;BME280;51446;53.850;10.662;2022-07-23T06:14:32;101625.44;;;15.15;79.45
64933;BME280;51446;53.850;10.662;2022-07-23T06:16:58;101622.75;;;15.12;79.90
64933;BME280;51446;53.850;10.662;2022-07-23T06:19:24;101624.59;;;15.17;80.00
64933;BME280;51446;53.850;10.662;2022-07-23T06:21:49;101626.41;;;15.24;79.03
64933;BME280;51446;53.850;10.662;2022-07-23T06:24:14;101618.31;;;15.09;79.81
64933;BME280;51446;53.850;10.662;2022-07-23T06:26:40;101617.50;;;15.13;79.38
64933;BME280;51446;53.850;10.662;2022-07-23T06:29:05;101619.25;;;15.11;79.48
64933;BME280;51446;53.850;10.662;2022-07-23T06:31:30;101609.53;;;15.08;79.15
64933;BME280;51446;53.850;10.662;2022-07-23T06:33:56;101604.28;;;15.13;78.89
64933;BME280;51446;53.850;10.662;2022-07-23T06:36:21;101609.66;;;15.24;77.81
64933;BME280;51446;53.850;10.662;2022-07-23T06:38:46;101616.91;;;15.45;78.27
64933;BME280;51446;53.850;10.662;2022-07-23T06:41:11;101614.50;;;15.74;77.00
64933;BME280;51446;53.850;10.662;2022-07-23T06:43:37;101625.19;;;15.79;76.69
64933;BME280;51446;53.850;10.662;2022-07-23T06:46:02;101632.44;;;16.03;75.76
64933;BME280;51446;53.850;10.662;2022-07-23T06:48:27;101628.97;;;16.17;74.29
64933;BME280;51446;53.850;10.662;2022-07-23T06:50:54;101629.81;;;16.06;72.99
64933;BME280;51446;53.850;10.662;2022-07-23T06:53:19;101627.25;;;16.23;73.06
64933;BME280;51446;53.850;10.662;2022-07-23T06:55:45;101635.25;;;16.31;71.57
64933;BME280;51446;53.850;10.662;2022-07-23T06:58:10;101627.41;;;16.53;71.27
64933;BME280;51446;53.850;10.662;2022-07-23T07:00:36;101644.84;;;16.12;71.08
64933;BME280;51446;53.850;10.662;2022-07-23T07:03:01;101641.22;;;16.02;73.00
64933;BME280;51446;53.850;10.662;2022-07-23T07:05:26;101642.03;;;15.92;72.99
64933;BME280;51446;53.850;10.662;2022-07-23T07:07:55;101638.19;;;15.56;74.14
64933;BME280;51446;53.850;10.662;2022-07-23T07:10:21;101639.66;;;15.27;78.00
64933;BME280;51446;53.850;10.662;2022-07-23T07:12:46;101643.81;;;15.04;80.88
64933;BME280;51446;53.850;10.662;2022-07-23T07:15:12;101644.47;;;14.84;82.89
64933;BME280;51446;53.850;10.662;2022-07-23T07:17:37;101654.63;;;14.55;84.67
64933;BME280;51446;53.850;10.662;2022-07-23T07:20:03;101659.97;;;14.60;86.08
64933;BME280;51446;53.850;10.662;2022-07-23T07:22:29;101662.63;;;14.61;86.07
64933;BME280;51446;53.850;10.662;2022-07-23T07:24:54;101667.19;;;14.71;86.28
64933;BME280;51446;53.850;10.662;2022-07-23T07:27:19;101666.44;;;14.82;86.63
64933;BME280;51446;53.850;10.662;2022-07-23T07:29:45;101672.00;;;15.06;86.00
64933;BME280;51446;53.850;10.662;2022-07-23T07:32:10;101673.06;;;15.22;85.61
64933;BME280;51446;53.850;10.662;2022-07-23T07:34:35;101670.19;;;15.01;84.61
64933;BME280;51446;53.850;10.662;2022-07-23T07:37:00;101657.38;;;15.38;85.45
64933;BME280;51446;53.850;10.662;2022-07-23T07:39:26;101656.81;;;15.74;83.96
64933;BME280;51446;53.850;10.662;2022-07-23T07:41:51;101655.50;;;16.30;82.36
64933;BME280;51446;53.850;10.662;2022-07-23T07:44:16;101653.97;;;16.70;77.65
64933;BME280;51446;53.850;10.662;2022-07-23T07:46:41;101650.72;;;18.13;75.06
64933;BME280;51446;53.850;10.662;2022-07-23T07:49:07;101654.16;;;18.63;72.01
64933;BME280;51446;53.850;10.662;2022-07-23T07:51:33;101660.31;;;18.69;70.79
64933;BME280;51446;53.850;10.662;2022-07-23T07:53:58;101666.56;;;18.56;70.28
64933;BME280;51446;53.850;10.662;2022-07-23T07:56:23;101659.53;;;18.35;71.28
64933;BME280;51446;53.850;10.662;2022-07-23T07:58:49;101647.00;;;18.77;66.70
64933;BME280;51446;53.850;10.662;2022-07-23T08:01:14;101650.69;;;18.33;69.52
64933;BME280;51446;53.850;10.662;2022-07-23T08:03:39;101655.38;;;19.64;66.69
64933;BME280;51446;53.850;10.662;2022-07-23T08:06:05;101658.59;;;20.06;63.52
64933;BME280;51446;53.850;10.662;2022-07-23T08:08:30;101650.13;;;22.33;58.45
64933;BME280;51446;53.850;10.662;2022-07-23T08:10:55;101653.44;;;22.89;54.36
64933;BME280;51446;53.850;10.662;2022-07-23T08:13:20;101644.19;;;22.63;53.98
64933;BME280;51446;53.850;10.662;2022-07-23T08:15:46;101650.88;;;20.62;58.96
64933;BME280;51446;53.850;10.662;2022-07-23T08:18:11;101651.47;;;20.08;60.36
64933;BME280;51446;53.850;10.662;2022-07-23T08:20:36;101646.91;;;20.23;60.56
64933;BME280;51446;53.850;10.662;2022-07-23T08:23:08;101643.66;;;20.75;57.14
64933;BME280;51446;53.850;10.662;2022-07-23T08:25:36;101640.88;;;20.86;56.66
64933;BME280;51446;53.850;10.662;2022-07-23T08:28:04;101642.91;;;23.61;50.03
64933;BME280;51446;53.850;10.662;2022-07-23T08:30:30;101638.41;;;24.32;46.87
64933;BME280;51446;53.850;10.662;2022-07-23T08:33:01;101628.66;;;22.82;47.27
64933;BME280;51446;53.850;10.662;2022-07-23T08:35:33;101639.94;;;20.06;53.13
64933;BME280;51446;53.850;10.662;2022-07-23T08:38:01;101638.72;;;19.37;57.02
64933;BME280;51446;53.850;10.662;2022-07-23T08:40:29;101636.50;;;19.93;55.26
64933;BME280;51446;53.850;10.662;2022-07-23T08:42:55;101633.69;;;18.85;57.68
64933;BME280;51446;53.850;10.662;2022-07-23T08:45:22;101635.41;;;19.04;58.28
64933;BME280;51446;53.850;10.662;2022-07-23T08:47:55;101638.44;;;20.68;54.50
64933;BME280;51446;53.850;10.662;2022-07-23T08:50:22;101642.63;;;20.86;52.20
64933;BME280;51446;53.850;10.662;2022-07-23T08:52:51;101637.97;;;21.03;52.25
64933;BME280;51446;53.850;10.662;2022-07-23T08:55:18;101629.19;;;22.56;48.50
64933;BME280;51446;53.850;10.662;2022-07-23T08:57:50;101636.16;;;23.05;45.63
64933;BME280;51446;53.850;10.662;2022-07-23T09:00:16;101633.81;;;21.99;48.45
64933;BME280;51446;53.850;10.662;2022-07-23T09:02:43;101640.78;;;20.92;51.48
64933;BME280;51446;53.850;10.662;2022-07-23T09:05:10;101644.09;;;20.34;53.89
64933;BME280;51446;53.850;10.662;2022-07-23T09:07:36;101648.50;;;19.35;56.08
64933;BME280;51446;53.850;10.662;2022-07-23T09:10:09;101643.25;;;19.26;58.00
64933;BME280;51446;53.850;10.662;2022-07-23T09:12:36;101647.88;;;18.81;57.70
64933;BME280;51446;53.850;10.662;2022-07-23T09:15:06;101646.97;;;18.96;57.43
64933;BME280;51446;53.850;10.662;2022-07-23T09:17:42;101651.50;;;18.63;58.02
64933;BME280;51446;53.850;10.662;2022-07-23T09:20:12;101656.91;;;18.12;58.93
64933;BME280;51446;53.850;10.662;2022-07-23T09:22:38;101656.91;;;18.16;59.74
64933;BME280;51446;53.850;10.662;2022-07-23T09:25:23;101655.09;;;18.37;59.85
64933;BME280;51446;53.850;10.662;2022-07-23T09:30:13;101656.06;;;18.03;59.77
64933;BME280;51446;53.850;10.662;2022-07-23T09:32:39;101666.59;;;18.42;60.79
64933;BME280;51446;53.850;10.662;2022-07-23T09:35:04;101664.78;;;18.60;59.46
64933;BME280;51446;53.850;10.662;2022-07-23T09:37:30;101650.59;;;18.61;59.75
64933;BME280;51446;53.850;10.662;2022-07-23T09:40:04;101658.25;;;19.30;58.99
64933;BME280;51446;53.850;10.662;2022-07-23T09:42:30;101653.91;;;20.32;55.30
64933;BME280;51446;53.850;10.662;2022-07-23T09:44:57;101665.97;;;20.63;54.73
64933;BME280;51446;53.850;10.662;2022-07-23T09:47:25;101657.47;;;20.31;53.62
64933;BME280;51446;53.850;10.662;2022-07-23T09:50:03;101663.28;;;20.68;54.23
64933;BME280;51446;53.850;10.662;2022-07-23T09:52:34;101667.88;;;20.52;54.02
64933;BME280;51446;53.850;10.662;2022-07-23T09:55:02;101664.91;;;19.95;55.29
64933;BME280;51446;53.850;10.662;2022-07-23T09:57:28;101670.19;;;19.98;54.33
64933;BME280;51446;53.850;10.662;2022-07-23T09:59:58;101675.56;;;19.95;55.82
64933;BME280;51446;53.850;10.662;2022-07-23T10:02:25;101670.16;;;20.01;54.96
64933;BME280;51446;53.850;10.662;2022-07-23T10:04:53;101669.25;;;20.05;54.59
64933;BME280;51446;53.850;10.662;2022-07-23T10:07:21;101673.63;;;20.10;53.66
64933;BME280;51446;53.850;10.662;2022-07-23T10:09:48;101662.69;;;20.41;53.03
64933;BME280;51446;53.850;10.662;2022-07-23T10:12:14;101662.53;;;21.27;53.40
64933;BME280;51446;53.850;10.662;2022-07-23T10:14:59;101655.28;;;20.68;51.83
64933;BME280;51446;53.850;10.662;2022-07-23T10:17:25;101668.63;;;21.94;50.05
64933;BME280;51446;53.850;10.662;2022-07-23T10:19:52;101657.13;;;22.83;47.25
64933;BME280;51446;53.850;10.662;2022-07-23T10:22:26;101661.97;;;22.18;48.36
64933;BME280;51446;53.850;10.662;2022-07-23T10:25:19;101668.09;;;21.10;51.34
64933;BME280;51446;53.850;10.662;2022-07-23T10:30:54;101667.97;;;20.46;52.59
64933;BME280;51446;53.850;10.662;2022-07-23T10:33:50;101668.22;;;20.21;53.88
64933;BME280;51446;53.850;10.662;2022-07-23T10:36:51;101669.56;;;19.65;55.25
64933;BME280;51446;53.850;10.662;2022-07-23T10:39:22;101666.25;;;19.27;55.50
64933;BME280;51446;53.850;10.662;2022-07-23T10:41:49;101678.66;;;19.31;56.08
64933;BME280;51446;53.850;10.662;2022-07-23T10:44:20;101676.91;;;19.32;56.64
64933;BME280;51446;53.850;10.662;2022-07-23T10:47:03;101680.66;;;18.81;56.56
64933;BME280;51446;53.850;10.662;2022-07-23T10:49:47;101686.94;;;18.55;57.56
64933;BME280;51446;53.850;10.662;2022-07-23T10:52:22;101686.91;;;18.62;58.67
64933;BME280;51446;53.850;10.662;2022-07-23T10:54:56;101696.66;;;18.66;59.31
64933;BME280;51446;53.850;10.662;2022-07-23T10:57:26;101696.72;;;18.12;60.90
64933;BME280;51446;53.850;10.662;2022-07-23T11:02:38;101694.06;;;18.32;60.36
64933;BME280;51446;53.850;10.662;2022-07-23T11:05:06;101700.16;;;18.79;58.89
64933;BME280;51446;53.850;10.662;2022-07-23T11:07:31;101701.16;;;18.00;60.72
64933;BME280;51446;53.850;10.662;2022-07-23T11:09:57;101706.47;;;18.13;60.99
64933;BME280;51446;53.850;10.662;2022-07-23T11:17:22;101707.34;;;17.95;61.95
64933;BME280;51446;53.850;10.662;2022-07-23T11:22:36;101706.44;;;17.83;63.07
64933;BME280;51446;53.850;10.662;2022-07-23T11:25:02;101708.19;;;17.75;63.02
64933;BME280;51446;53.850;10.662;2022-07-23T11:27:41;101707.38;;;17.99;63.36
64933;BME280;51446;53.850;10.662;2022-07-23T11:30:08;101694.09;;;18.19;61.23
64933;BME280;51446;53.850;10.662;2022-07-23T11:32:36;101693.03;;;18.87;59.31
64933;BME280;51446;53.850;10.662;2022-07-23T11:35:19;101695.75;;;18.71;57.76
64933;BME280;51446;53.850;10.662;2022-07-23T11:37:45;101691.16;;;19.17;55.86
64933;BME280;51446;53.850;10.662;2022-07-23T11:40:13;101686.75;;;19.06;56.32
64933;BME280;51446;53.850;10.662;2022-07-23T11:43:00;101691.78;;;19.57;55.66
64933;BME280;51446;53.850;10.662;2022-07-23T11:45:38;101699.84;;;20.52;54.26
64933;BME280;51446;53.850;10.662;2022-07-23T11:48:06;101691.81;;;20.55;52.47
64933;BME280;51446;53.850;10.662;2022-07-23T11:50:31;101683.13;;;21.16;49.84
64933;BME280;51446;53.850;10.662;2022-07-23T11:52:57;101687.09;;;20.84;48.90
64933;BME280;51446;53.850;10.662;2022-07-23T11:55:23;101680.56;;;20.30;50.15
64933;BME280;51446;53.850;10.662;2022-07-23T11:57:51;101680.41;;;20.47;49.71
64933;BME280;51446;53.850;10.662;2022-07-23T12:00:19;101689.72;;;21.55;47.47
64933;BME280;51446;53.850;10.662;2022-07-23T12:02:51;101681.31;;;22.30;47.17
64933;BME280;51446;53.850;10.662;2022-07-23T12:05:21;101683.25;;;21.70;45.87
64933;BME280;51446;53.850;10.662;2022-07-23T12:07:49;101681.56;;;22.64;45.49
64933;BME280;51446;53.850;10.662;2022-07-23T12:13:07;101694.72;;;20.34;49.66
64933;BME280;51446;53.850;10.662;2022-07-23T12:15:41;101688.00;;;20.83;49.30
64933;BME280;51446;53.850;10.662;2022-07-23T12:18:08;101684.34;;;20.06;49.85
64933;BME280;51446;53.850;10.662;2022-07-23T12:20:45;101686.44;;;19.64;51.60
64933;BME280;51446;53.850;10.662;2022-07-23T12:23:14;101683.41;;;20.10;50.11
64933;BME280;51446;53.850;10.662;2022-07-23T12:25:41;101689.88;;;19.78;50.87
64933;BME280;51446;53.850;10.662;2022-07-23T12:28:11;101682.59;;;20.02;50.94
64933;BME280;51446;53.850;10.662;2022-07-23T12:30:39;101693.13;;;20.16;51.51
64933;BME280;51446;53.850;10.662;2022-07-23T12:33:07;101697.00;;;19.73;53.07
64933;BME280;51446;53.850;10.662;2022-07-23T12:35:38;101697.91;;;19.70;53.17
64933;BME280;51446;53.850;10.662;2022-07-23T12:38:08;101705.25;;;19.33;54.99
64933;BME280;51446;53.850;10.662;2022-07-23T12:43:10;101705.28;;;19.28;56.02
64933;BME280;51446;53.850;10.662;2022-07-23T12:48:26;101705.56;;;20.17;54.04
64933;BME280;51446;53.850;10.662;2022-07-23T12:51:00;101700.72;;;20.56;52.60
64933;BME280;51446;53.850;10.662;2022-07-23T12:53:29;101705.09;;;20.61;51.99
64933;BME280;51446;53.850;10.662;2022-07-23T12:56:28;101706.59;;;21.56;49.83
64933;BME280;51446;53.850;10.662;2022-07-23T13:01:33;101706.06;;;21.27;49.30
64933;BME280;51446;53.850;10.662;2022-07-23T13:06:48;101706.09;;;20.53;47.68
64933;BME280;51446;53.850;10.662;2022-07-23T13:09:16;101713.44;;;20.27;48.80